createdAt,value
2023-01-29T00:01:18.732Z,5.03
2023-01-29T00:03:45.641Z,4.99
2023-01-29T00:06:12.824Z,4.97
2023-01-29T00:08:39.641Z,5.02
2023-01-29T00:11:08.197Z,5.08
2023-01-29T00:13:35.527Z,5.08
2023-01-29T00:16:02.591Z,5.04
2023-01-29T00:18:29.999Z,5.07
2023-01-29T00:20:56.897Z,5.04
2023-01-29T00:23:23.570Z,5.07
2023-01-29T00:25:50.068Z,5.08
2023-01-29T00:28:16.679Z,5.05
2023-01-29T00:30:43.137Z,5.00
2023-01-29T00:33:09.697Z,5.09
2023-01-29T00:35:40.201Z,5.10
2023-01-29T00:38:06.673Z,5.09
2023-01-29T00:40:53.057Z,5.10
2023-01-29T00:43:38.105Z,5.10
2023-01-29T00:46:06.489Z,5.08
2023-01-29T00:48:34.198Z,5.10
2023-01-29T00:51:01.989Z,5.14
2023-01-29T00:53:28.544Z,5.15
2023-01-29T00:55:54.959Z,5.11
2023-01-29T00:58:22.358Z,5.17
2023-01-29T01:00:49.338Z,5.10
2023-01-29T01:03:15.936Z,5.19
2023-01-29T01:05:43.003Z,5.11
2023-01-29T01:08:29.407Z,5.24
2023-01-29T01:11:03.714Z,5.26
2023-01-29T01:13:33.232Z,5.11
2023-01-29T01:16:00.061Z,5.28
2023-01-29T01:18:30.688Z,5.18
2023-01-29T01:20:59.455Z,5.29
2023-01-29T01:23:26.021Z,5.27
2023-01-29T01:25:52.417Z,5.28
2023-01-29T01:28:18.959Z,5.30
2023-01-29T01:30:45.622Z,5.33
2023-01-29T01:33:12.431Z,5.24
2023-01-29T01:35:40.242Z,5.25
2023-01-29T01:38:06.974Z,5.35
2023-01-29T01:40:33.599Z,5.07
2023-01-29T01:43:00.672Z,5.34
2023-01-29T01:45:30.357Z,5.34
2023-01-29T01:48:13.016Z,5.36
2023-01-29T01:50:52.044Z,5.35
2023-01-29T01:53:22.930Z,5.38
2023-01-29T01:55:54.976Z,5.39
2023-01-29T01:58:27.884Z,5.41
2023-01-29T02:00:55.389Z,5.42
2023-01-29T02:03:42.978Z,5.27
2023-01-29T02:06:29.281Z,5.44
2023-01-29T02:09:18.720Z,5.42
2023-01-29T02:11:45.185Z,5.46
2023-01-29T02:14:12.298Z,5.41
2023-01-29T02:16:39.321Z,5.44
2023-01-29T02:19:14.666Z,5.42
2023-01-29T02:22:13.441Z,5.47
2023-01-29T02:24:59.348Z,5.45
2023-01-29T02:28:10.078Z,5.48
2023-01-29T02:30:42.850Z,5.43
2023-01-29T02:33:21.472Z,5.46
2023-01-29T02:36:09.331Z,5.46
2023-01-29T02:39:11.859Z,5.49
2023-01-29T02:41:54.173Z,5.47
2023-01-29T02:44:24.676Z,5.47
2023-01-29T02:47:04.537Z,5.48
2023-01-29T02:49:41.114Z,5.49
2023-01-29T02:52:31.447Z,5.46
2023-01-29T02:55:03.062Z,5.56
2023-01-29T02:57:35.215Z,5.47
2023-01-29T03:00:10.711Z,5.48
2023-01-29T03:02:49.183Z,5.52
2023-01-29T03:05:21.830Z,5.52
2023-01-29T03:07:56.527Z,5.53
2023-01-29T03:10:33.363Z,5.52
2023-01-29T03:13:06.490Z,5.51
2023-01-29T03:15:42.343Z,5.53
2023-01-29T03:18:14.112Z,5.55
2023-01-29T03:20:48.263Z,5.53
2023-01-29T03:23:24.140Z,5.55
2023-01-29T03:26:17.334Z,5.55
2023-01-29T03:29:04.608Z,5.54
2023-01-29T03:31:50.908Z,5.53
2023-01-29T03:34:24.790Z,5.54
2023-01-29T03:36:57.954Z,5.46
2023-01-29T03:39:28.899Z,5.52
2023-01-29T03:42:13.726Z,5.50
2023-01-29T03:45:00.379Z,5.54
2023-01-29T03:47:45.725Z,5.54
2023-01-29T03:50:29.594Z,5.54
2023-01-29T03:53:09.898Z,5.48
2023-01-29T03:55:48.313Z,5.61
2023-01-29T03:58:23.118Z,5.54
2023-01-29T04:00:59.034Z,5.54
2023-01-29T04:03:42.041Z,5.52
2023-01-29T04:06:18.640Z,5.51
2023-01-29T04:09:01.125Z,5.41
2023-01-29T04:11:29.476Z,5.47
2023-01-29T04:13:57.331Z,5.45
2023-01-29T04:16:40.851Z,5.47
2023-01-29T04:19:08.108Z,5.45
2023-01-29T04:21:37.056Z,5.39
2023-01-29T04:24:05.130Z,5.45
2023-01-29T04:26:54.237Z,5.38
2023-01-29T04:29:28.336Z,5.38
2023-01-29T04:32:16.184Z,5.38
2023-01-29T04:35:08.819Z,5.36
2023-01-29T04:37:43.975Z,5.34
2023-01-29T04:40:54.947Z,5.40
2023-01-29T04:43:53.130Z,5.28
2023-01-29T04:46:45.835Z,5.38
2023-01-29T04:49:21.485Z,5.36
2023-01-29T04:52:09.075Z,5.32
2023-01-29T04:54:57.455Z,5.38
2023-01-29T04:57:36.330Z,5.34
2023-01-29T05:00:13.034Z,5.32
2023-01-29T05:02:41.962Z,5.35
2023-01-29T05:05:10.172Z,5.34
2023-01-29T05:07:38.830Z,5.34
2023-01-29T05:10:08.330Z,5.36
2023-01-29T05:12:37.292Z,5.33
2023-01-29T05:15:09.072Z,5.34
2023-01-29T05:17:35.627Z,5.33
2023-01-29T05:20:02.262Z,5.30
2023-01-29T05:22:30.641Z,5.19
2023-01-29T05:24:57.079Z,5.32
2023-01-29T05:27:53.028Z,5.33
2023-01-29T05:30:19.760Z,5.32
2023-01-29T05:32:46.193Z,5.21
2023-01-29T05:35:12.653Z,5.30
2023-01-29T05:37:39.047Z,5.28
2023-01-29T05:40:08.890Z,5.25
2023-01-29T05:42:35.451Z,5.21
2023-01-29T05:45:02.161Z,5.20
2023-01-29T05:47:28.583Z,5.24
2023-01-29T05:49:55.008Z,5.22
2023-01-29T05:52:21.388Z,5.23
2023-01-29T05:54:47.839Z,5.08
2023-01-29T05:57:14.861Z,5.20
2023-01-29T05:59:41.256Z,5.20
2023-01-29T06:02:07.644Z,5.18
2023-01-29T06:04:34.231Z,5.13
2023-01-29T06:07:03.291Z,5.14
2023-01-29T06:09:29.704Z,5.15
2023-01-29T06:11:56.112Z,5.14
2023-01-29T06:14:22.580Z,5.14
2023-01-29T06:16:48.995Z,5.12
2023-01-29T06:19:15.778Z,5.11
2023-01-29T06:21:42.167Z,5.08
2023-01-29T06:24:08.822Z,5.08
2023-01-29T06:26:35.287Z,5.09
2023-01-29T06:29:01.953Z,5.06
2023-01-29T06:31:38.180Z,5.02
2023-01-29T06:34:06.516Z,5.01
2023-01-29T06:36:32.975Z,5.03
2023-01-29T06:38:59.415Z,4.95
2023-01-29T06:41:26.647Z,4.95
2023-01-29T06:43:53.060Z,4.90
2023-01-29T06:46:19.759Z,4.91
2023-01-29T06:48:46.199Z,4.90
2023-01-29T06:51:12.698Z,4.89
2023-01-29T06:53:39.855Z,4.89
2023-01-29T06:56:06.973Z,4.86
2023-01-29T06:58:33.814Z,4.87
2023-01-29T07:01:07.868Z,4.83
2023-01-29T07:03:34.364Z,4.86
2023-01-29T07:06:04.285Z,4.86
2023-01-29T07:08:31.001Z,4.67
2023-01-29T07:10:59.952Z,4.83
2023-01-29T07:13:26.798Z,4.81
2023-01-29T07:15:53.208Z,4.87
2023-01-29T07:18:19.680Z,4.81
2023-01-29T07:20:46.062Z,4.85
2023-01-29T07:23:13.965Z,4.63
2023-01-29T07:25:40.895Z,4.87
2023-01-29T07:28:07.721Z,4.69
2023-01-29T07:30:34.307Z,4.83
2023-01-29T07:33:07.506Z,4.81
2023-01-29T07:35:42.018Z,4.83
2023-01-29T07:38:10.080Z,4.79
2023-01-29T07:40:36.821Z,4.76
2023-01-29T07:43:05.946Z,4.75
2023-01-29T07:45:35.197Z,4.73
2023-01-29T07:48:02.294Z,4.70
2023-01-29T07:50:28.822Z,4.70
2023-01-29T07:52:55.283Z,4.73
2023-01-29T07:55:21.841Z,4.72
2023-01-29T07:57:48.243Z,4.73
2023-01-29T08:00:15.745Z,4.71
2023-01-29T08:02:42.346Z,4.76
2023-01-29T08:05:09.067Z,4.79
2023-01-29T08:07:35.491Z,4.83
2023-01-29T08:10:02.147Z,4.86
2023-01-29T08:12:28.602Z,4.85
2023-01-29T08:14:55.018Z,4.92
2023-01-29T08:17:21.432Z,4.92
2023-01-29T08:19:47.908Z,4.92
2023-01-29T08:22:16.639Z,4.91
2023-01-29T08:24:53.848Z,4.96
2023-01-29T08:27:26.566Z,4.97
2023-01-29T08:29:52.992Z,4.98
2023-01-29T08:32:19.393Z,4.97
2023-01-29T08:34:45.887Z,4.98
2023-01-29T08:37:12.338Z,5.03
2023-01-29T08:39:38.786Z,4.98
2023-01-29T08:42:05.253Z,5.05
2023-01-29T08:44:31.797Z,5.06
2023-01-29T08:46:58.415Z,5.03
2023-01-29T08:49:24.926Z,5.07
2023-01-29T08:51:54.647Z,5.09
2023-01-29T08:54:21.062Z,5.12
2023-01-29T08:56:47.561Z,5.16
2023-01-29T08:59:14.224Z,5.07
2023-01-29T09:01:40.697Z,5.20
2023-01-29T09:04:07.377Z,5.26
2023-01-29T09:06:33.935Z,5.24
2023-01-29T09:09:00.555Z,5.25
2023-01-29T09:11:26.998Z,5.32
2023-01-29T09:13:53.381Z,5.37
2023-01-29T09:16:19.846Z,5.40
2023-01-29T09:18:46.301Z,5.42
2023-01-29T09:21:12.748Z,5.30
2023-01-29T09:23:39.318Z,5.44
2023-01-29T09:26:07.396Z,5.52
2023-01-29T09:28:33.851Z,5.56
2023-01-29T09:31:04.029Z,5.59
2023-01-29T09:33:31.087Z,5.58
2023-01-29T09:35:57.520Z,5.61
2023-01-29T09:38:23.889Z,5.62
2023-01-29T09:41:23.058Z,5.69
2023-01-29T09:43:54.711Z,5.65
2023-01-29T09:46:30.067Z,5.63
2023-01-29T09:49:11.304Z,5.64
2023-01-29T09:51:41.752Z,5.69
2023-01-29T09:54:21.603Z,5.71
2023-01-29T09:56:51.756Z,5.71
2023-01-29T09:59:21.976Z,5.72
2023-01-29T10:01:59.243Z,5.75
2023-01-29T10:04:56.175Z,5.76
2023-01-29T10:08:16.664Z,5.76
2023-01-29T10:10:51.630Z,5.70
2023-01-29T10:13:32.792Z,5.75
2023-01-29T10:16:11.298Z,5.79
2023-01-29T10:18:55.719Z,5.78
2023-01-29T10:21:36.859Z,5.82
2023-01-29T10:24:06.254Z,5.83
2023-01-29T10:26:34.293Z,5.84
2023-01-29T10:29:05.217Z,5.83
2023-01-29T10:31:34.291Z,5.85
2023-01-29T10:34:07.304Z,5.87
2023-01-29T10:36:52.398Z,5.72
2023-01-29T10:39:24.206Z,5.90
2023-01-29T10:42:12.442Z,5.94
2023-01-29T10:45:00.295Z,5.95
2023-01-29T10:47:54.069Z,5.97
2023-01-29T10:50:35.721Z,5.81
2023-01-29T10:53:26.952Z,5.98
2023-01-29T10:56:20.973Z,6.02
2023-01-29T10:58:59.893Z,6.00
2023-01-29T11:01:26.796Z,6.03
2023-01-29T11:04:00.740Z,6.01
2023-01-29T11:06:29.943Z,5.99
2023-01-29T11:09:28.768Z,6.02
2023-01-29T11:12:04.478Z,6.02
2023-01-29T11:14:45.832Z,6.03
2023-01-29T11:17:20.563Z,5.98
2023-01-29T11:19:51.137Z,5.94
2023-01-29T11:22:19.880Z,5.97
2023-01-29T11:24:47.519Z,6.03
2023-01-29T11:27:26.626Z,6.05
2023-01-29T11:29:54.114Z,6.08
2023-01-29T11:32:30.032Z,6.06
2023-01-29T11:35:00.222Z,6.00
2023-01-29T11:37:34.148Z,6.17
2023-01-29T11:40:00.818Z,6.08
2023-01-29T11:42:31.002Z,6.05
2023-01-29T11:44:57.331Z,6.14
2023-01-29T11:47:30.273Z,5.97
2023-01-29T11:50:00.232Z,6.10
2023-01-29T11:52:42.079Z,6.15
2023-01-29T11:55:49.933Z,6.14
2023-01-29T11:58:25.429Z,6.12
2023-01-29T12:00:55.245Z,6.15
2023-01-29T12:03:25.089Z,6.19
2023-01-29T12:06:02.940Z,6.18
2023-01-29T12:08:36.290Z,6.19
2023-01-29T12:11:12.435Z,6.14
2023-01-29T12:13:40.591Z,6.20
2023-01-29T12:16:17.077Z,6.24
2023-01-29T12:18:50.931Z,6.23
2023-01-29T12:21:36.040Z,6.23
2023-01-29T12:24:24.325Z,6.27
2023-01-29T12:27:05.039Z,6.18
2023-01-29T12:29:40.747Z,6.24
2023-01-29T12:32:30.704Z,6.26
2023-01-29T12:35:09.108Z,6.25
2023-01-29T12:37:58.822Z,6.25
2023-01-29T12:40:29.663Z,6.25
2023-01-29T12:43:04.570Z,6.23
2023-01-29T12:45:32.807Z,6.22
2023-01-29T12:48:10.495Z,6.24
2023-01-29T12:50:38.363Z,6.23
2023-01-29T12:53:23.962Z,6.24
2023-01-29T12:55:55.603Z,6.31
2023-01-29T12:58:39.785Z,6.38
2023-01-29T13:01:16.747Z,6.38
2023-01-29T13:03:50.603Z,6.40
2023-01-29T13:06:22.339Z,6.42
2023-01-29T13:08:53.831Z,6.39
2023-01-29T13:11:29.823Z,6.41
2023-01-29T13:14:15.111Z,6.36
2023-01-29T13:16:45.957Z,6.41
2023-01-29T13:19:32.983Z,6.35
2023-01-29T13:22:02.512Z,6.39
2023-01-29T13:24:37.991Z,6.38
2023-01-29T13:27:04.602Z,6.37
2023-01-29T13:29:32.045Z,6.34
2023-01-29T13:32:00.869Z,6.31
2023-01-29T13:34:36.457Z,6.42
2023-01-29T13:37:10.054Z,6.41
2023-01-29T13:39:46.042Z,6.45
2023-01-29T13:42:21.821Z,6.47
2023-01-29T13:44:57.583Z,6.50
2023-01-29T13:47:28.197Z,6.46
2023-01-29T13:49:57.349Z,6.50
2023-01-29T13:52:31.817Z,6.52
2023-01-29T13:55:02.349Z,6.47
2023-01-29T13:57:48.197Z,6.50
2023-01-29T14:00:20.681Z,6.49
2023-01-29T14:02:55.886Z,6.47
2023-01-29T14:05:31.496Z,6.43
2023-01-29T14:08:14.151Z,6.40
2023-01-29T14:10:42.731Z,6.34
2023-01-29T14:13:18.276Z,6.25
2023-01-29T14:16:05.002Z,6.31
2023-01-29T14:18:34.924Z,6.31
2023-01-29T14:21:11.628Z,6.24
2023-01-29T14:23:46.662Z,6.22
2023-01-29T14:26:23.527Z,6.12
2023-01-29T14:28:59.028Z,6.26
2023-01-29T14:31:58.219Z,6.24
2023-01-29T14:34:35.056Z,6.22
2023-01-29T14:37:15.684Z,6.25
2023-01-29T14:39:46.910Z,6.27
2023-01-29T14:42:26.512Z,6.35
2023-01-29T14:44:55.700Z,6.34
2023-01-29T14:47:27.964Z,6.29
2023-01-29T14:49:57.007Z,6.30
2023-01-29T14:52:38.311Z,6.34
2023-01-29T14:55:10.995Z,6.16
2023-01-29T14:57:38.811Z,6.26
2023-01-29T15:00:22.227Z,6.28
2023-01-29T15:03:01.370Z,6.30
2023-01-29T15:05:32.493Z,6.26
2023-01-29T15:08:06.931Z,6.27
2023-01-29T15:11:12.452Z,6.21
2023-01-29T15:13:52.269Z,6.24
2023-01-29T15:16:31.107Z,6.02
2023-01-29T15:19:12.831Z,6.14
2023-01-29T15:21:39.199Z,6.18
2023-01-29T15:24:07.122Z,6.16
2023-01-29T15:26:36.280Z,5.93
2023-01-29T15:29:05.799Z,6.07
2023-01-29T15:31:33.028Z,6.04
2023-01-29T15:34:06.439Z,6.09
2023-01-29T15:36:33.421Z,5.97
2023-01-29T15:39:24.131Z,6.06
2023-01-29T15:42:04.253Z,6.05
2023-01-29T15:44:30.920Z,5.96
2023-01-29T15:47:01.104Z,6.03
2023-01-29T15:49:37.914Z,6.07
2023-01-29T15:52:08.199Z,6.04
2023-01-29T15:54:35.442Z,6.08
2023-01-29T15:57:03.395Z,6.01
2023-01-29T15:59:34.804Z,6.03
2023-01-29T16:02:40.859Z,5.98
2023-01-29T16:05:19.559Z,5.92
2023-01-29T16:07:47.170Z,5.92
2023-01-29T16:10:41.998Z,5.94
2023-01-29T16:13:30.765Z,5.91
2023-01-29T16:16:17.143Z,5.92
2023-01-29T16:18:58.996Z,5.78
2023-01-29T16:21:29.234Z,5.85
2023-01-29T16:23:58.776Z,5.89
2023-01-29T16:26:28.599Z,5.92
2023-01-29T16:28:55.538Z,5.79
2023-01-29T16:31:26.011Z,5.90
2023-01-29T16:33:53.002Z,5.87
2023-01-29T16:36:25.476Z,5.90
2023-01-29T16:39:05.320Z,5.76
2023-01-29T16:41:35.994Z,5.89
2023-01-29T16:44:23.861Z,5.90
2023-01-29T16:46:52.191Z,5.88
2023-01-29T16:49:30.969Z,5.89
2023-01-29T16:52:34.609Z,5.94
2023-01-29T16:55:13.301Z,5.89
2023-01-29T16:57:40.870Z,5.85
2023-01-29T17:00:18.087Z,5.80
2023-01-29T17:02:44.620Z,5.78
2023-01-29T17:05:22.281Z,5.75
2023-01-29T17:07:49.279Z,5.71
2023-01-29T17:10:18.835Z,5.76
2023-01-29T17:12:54.692Z,5.60
2023-01-29T17:15:34.638Z,5.68
2023-01-29T17:18:01.176Z,5.72
2023-01-29T17:20:27.973Z,5.68
2023-01-29T17:22:54.416Z,5.64
2023-01-29T17:25:21.938Z,5.59
2023-01-29T17:27:51.679Z,5.56
2023-01-29T17:30:21.740Z,5.58
2023-01-29T17:32:48.227Z,5.61
2023-01-29T17:35:16.861Z,5.59
2023-01-29T17:37:44.360Z,5.55
2023-01-29T17:40:38.898Z,5.58
2023-01-29T17:43:06.866Z,5.42
2023-01-29T17:45:33.766Z,5.51
2023-01-29T17:48:00.242Z,5.44
2023-01-29T17:50:30.795Z,5.20
2023-01-29T17:52:57.228Z,5.43
2023-01-29T17:55:24.122Z,5.42
2023-01-29T17:57:50.670Z,5.39
2023-01-29T18:00:19.972Z,5.39
2023-01-29T18:02:47.234Z,5.33
2023-01-29T18:05:14.580Z,5.30
2023-01-29T18:07:43.416Z,5.22
2023-01-29T18:10:19.170Z,5.27
2023-01-29T18:12:46.164Z,5.22
2023-01-29T18:15:13.408Z,5.18
2023-01-29T18:17:40.511Z,5.21
2023-01-29T18:20:20.951Z,5.11
2023-01-29T18:22:47.701Z,5.22
2023-01-29T18:25:14.509Z,5.20
2023-01-29T18:27:41.015Z,5.24
2023-01-29T18:30:08.511Z,5.24
2023-01-29T18:32:34.924Z,5.27
2023-01-29T18:35:04.201Z,5.26
2023-01-29T18:37:32.831Z,5.23
2023-01-29T18:39:59.611Z,5.24
2023-01-29T18:42:26.062Z,5.21
2023-01-29T18:44:52.658Z,5.27
2023-01-29T18:47:19.226Z,5.18
2023-01-29T18:49:45.878Z,5.12
2023-01-29T18:52:12.265Z,5.18
2023-01-29T18:54:38.669Z,5.17
2023-01-29T18:57:14.421Z,5.23
2023-01-29T18:59:41.671Z,5.23
2023-01-29T19:02:13.637Z,5.18
2023-01-29T19:04:40.141Z,5.28
2023-01-29T19:07:10.611Z,5.18
2023-01-29T19:09:37.664Z,5.25
2023-01-29T19:12:05.391Z,5.23
2023-01-29T19:14:32.209Z,5.22
2023-01-29T19:17:01.346Z,5.21
2023-01-29T19:19:28.740Z,5.21
2023-01-29T19:21:55.516Z,5.17
2023-01-29T19:24:22.421Z,5.11
2023-01-29T19:26:49.627Z,5.30
2023-01-29T19:29:17.016Z,5.29
2023-01-29T19:31:44.241Z,5.29
2023-01-29T19:34:10.715Z,5.26
2023-01-29T19:36:37.482Z,5.30
2023-01-29T19:39:04.704Z,5.30
2023-01-29T19:41:31.220Z,5.18
2023-01-29T19:43:57.634Z,5.38
2023-01-29T19:46:24.087Z,5.42
2023-01-29T19:48:50.593Z,5.43
2023-01-29T19:51:17.088Z,5.39
2023-01-29T19:53:46.777Z,5.33
2023-01-29T19:56:15.965Z,5.27
2023-01-29T19:58:43.080Z,5.17
2023-01-29T20:01:14.277Z,5.40
2023-01-29T20:03:42.067Z,5.40
2023-01-29T20:06:09.045Z,5.42
2023-01-29T20:08:35.932Z,5.42
2023-01-29T20:11:03.020Z,5.39
2023-01-29T20:13:29.468Z,5.39
2023-01-29T20:15:56.058Z,5.29
2023-01-29T20:18:22.611Z,5.46
2023-01-29T20:20:52.927Z,5.36
2023-01-29T20:23:35.229Z,5.31
2023-01-29T20:26:04.033Z,5.43
2023-01-29T20:28:30.522Z,5.46
2023-01-29T20:30:58.241Z,5.34
2023-01-29T20:33:25.689Z,5.39
2023-01-29T20:36:01.012Z,5.47
2023-01-29T20:38:31.924Z,5.48
2023-01-29T20:41:14.552Z,5.52
2023-01-29T20:43:42.392Z,5.54
2023-01-29T20:46:09.887Z,5.52
2023-01-29T20:48:37.318Z,5.59
2023-01-29T20:51:15.512Z,5.57
2023-01-29T20:53:45.388Z,5.61
2023-01-29T20:56:13.430Z,5.56
2023-01-29T20:58:41.063Z,5.45
2023-01-29T21:01:09.359Z,5.64
2023-01-29T21:03:35.789Z,5.54
2023-01-29T21:06:02.521Z,5.68
2023-01-29T21:08:29.141Z,5.69
2023-01-29T21:10:55.589Z,5.57
2023-01-29T21:13:22.021Z,5.60
2023-01-29T21:15:50.842Z,5.65
2023-01-29T21:18:17.557Z,5.59
2023-01-29T21:20:44.225Z,5.72
2023-01-29T21:23:10.683Z,5.76
2023-01-29T21:25:38.575Z,5.78
2023-01-29T21:28:05.799Z,5.79
2023-01-29T21:30:32.512Z,5.82
2023-01-29T21:32:58.947Z,5.84
2023-01-29T21:35:26.060Z,5.77
2023-01-29T21:37:52.519Z,5.79
2023-01-29T21:40:21.088Z,5.79
2023-01-29T21:43:06.583Z,5.90
2023-01-29T21:45:34.777Z,5.83
2023-01-29T21:48:02.375Z,5.90
2023-01-29T21:50:29.039Z,5.92
2023-01-29T21:52:55.471Z,5.93
2023-01-29T21:55:21.884Z,5.94
2023-01-29T21:57:48.630Z,5.96
2023-01-29T22:00:16.169Z,5.98
2023-01-29T22:02:42.945Z,5.94
2023-01-29T22:05:18.772Z,6.00
2023-01-29T22:07:47.088Z,6.07
2023-01-29T22:10:13.729Z,6.08
2023-01-29T22:12:40.445Z,6.10
2023-01-29T22:15:08.149Z,5.99
2023-01-29T22:17:35.340Z,5.99
2023-01-29T22:20:02.552Z,5.98
2023-01-29T22:22:28.969Z,5.95
2023-01-29T22:24:56.459Z,5.92
2023-01-29T22:27:22.863Z,5.80
2023-01-29T22:29:49.259Z,5.69
2023-01-29T22:32:16.720Z,5.79
2023-01-29T22:34:43.140Z,5.82
2023-01-29T22:37:09.612Z,5.79
2023-01-29T22:39:36.015Z,5.79
2023-01-29T22:42:02.632Z,5.77
2023-01-29T22:44:29.086Z,5.78
2023-01-29T22:46:55.493Z,5.78
2023-01-29T22:49:23.054Z,5.68
2023-01-29T22:52:09.476Z,5.63
2023-01-29T22:54:40.533Z,5.65
2023-01-29T22:57:09.963Z,5.73
2023-01-29T22:59:36.420Z,5.77
2023-01-29T23:02:02.972Z,5.65
2023-01-29T23:04:29.449Z,5.80
2023-01-29T23:06:56.012Z,5.73
2023-01-29T23:09:22.565Z,5.83
2023-01-29T23:11:49.216Z,5.78
2023-01-29T23:14:15.909Z,5.81
2023-01-29T23:16:42.420Z,5.77
2023-01-29T23:19:10.964Z,5.78
2023-01-29T23:21:37.924Z,5.81
2023-01-29T23:24:05.869Z,5.70
2023-01-29T23:26:50.844Z,5.78
2023-01-29T23:29:17.301Z,5.79
2023-01-29T23:31:43.782Z,5.87
2023-01-29T23:34:10.265Z,5.85
2023-01-29T23:36:36.975Z,5.82
2023-01-29T23:39:03.877Z,5.89
2023-01-29T23:41:30.432Z,5.92
2023-01-29T23:43:57.021Z,5.92
2023-01-29T23:46:23.694Z,5.83
2023-01-29T23:48:50.196Z,5.90
2023-01-29T23:51:16.938Z,5.91
2023-01-29T23:53:43.323Z,6.04
2023-01-29T23:56:10.681Z,6.03
2023-01-29T23:58:38.299Z,6.07
